sensor_id;sensor_type;location;lat;lon;timestamp;temperature;humidity
19805;DHT22;10062;51.052;13.756;2023-03-01T00:00:06;-1.00;1.00
19805;DHT22;10062;51.052;13.756;2023-03-01T00:02:42;-1.00;1.00
19805;DHT22;10062;51.052;13.756;2023-03-01T00:05:13;-1.00;1.00
19805;DHT22;10062;51.052;13.756;2023-03-01T00:07:46;-1.00;1.00
19805;DHT22;10062;51.052;13.756;2023-03-01T00:10:18;-0.90;1.00
19805;DHT22;10062;51.052;13.756;2023-03-01T00:12:49;-1.00;1.00
19805;DHT22;10062;51.052;13.756;2023-03-01T00:15:21;-0.80;1.00
19805;DHT22;10062;51.052;13.756;2023-03-01T00:17:53;-0.80;1.00
19805;DHT22;10062;51.052;13.756;2023-03-01T00:20:24;-0.80;1.00
19805;DHT22;10062;51.052;13.756;2023-03-01T00:22:57;-0.90;1.00
19805;DHT22;10062;51.052;13.756;2023-03-01T00:25:29;-0.90;1.00
19805;DHT22;10062;51.052;13.756;2023-03-01T00:28:01;-0.90;1.00
19805;DHT22;10062;51.052;13.756;2023-03-01T00:30:33;-0.90;1.00
19805;DHT22;10062;51.052;13.756;2023-03-01T00:33:04;-1.00;1.00
19805;DHT22;10062;51.052;13.756;2023-03-01T00:35:36;-1.00;1.00
19805;DHT22;10062;51.052;13.756;2023-03-01T00:38:10;-1.00;1.00
19805;DHT22;10062;51.052;13.756;2023-03-01T00:40:41;-1.10;1.00
19805;DHT22;10062;51.052;13.756;2023-03-01T00:43:13;-1.10;1.00
19805;DHT22;10062;51.052;13.756;2023-03-01T00:45:45;-1.20;1.00
19805;DHT22;10062;51.052;13.756;2023-03-01T00:48:17;-1.30;1.00
19805;DHT22;10062;51.052;13.756;2023-03-01T00:50:48;-1.40;1.00
19805;DHT22;10062;51.052;13.756;2023-03-01T00:53:21;-1.40;1.00
19805;DHT22;10062;51.052;13.756;2023-03-01T00:55:53;-1.40;1.00
19805;DHT22;10062;51.052;13.756;2023-03-01T00:58:25;-1.50;1.00
19805;DHT22;10062;51.052;13.756;2023-03-01T01:00:57;-1.60;1.00
19805;DHT22;10062;51.052;13.756;2023-03-01T01:03:28;-1.60;1.00
19805;DHT22;10062;51.052;13.756;2023-03-01T01:06:00;-1.60;1.00
19805;DHT22;10062;51.052;13.756;2023-03-01T01:08:41;-1.50;1.00
19805;DHT22;10062;51.052;13.756;2023-03-01T01:11:13;-1.60;1.00
19805;DHT22;10062;51.052;13.756;2023-03-01T01:13:45;-1.60;1.00
19805;DHT22;10062;51.052;13.756;2023-03-01T01:16:19;-1.60;1.00
19805;DHT22;10062;51.052;13.756;2023-03-01T01:18:51;-1.60;1.00
19805;DHT22;10062;51.052;13.756;2023-03-01T01:21:24;-1.60;1.00
19805;DHT22;10062;51.052;13.756;2023-03-01T01:23:57;-1.60;1.00
19805;DHT22;10062;51.052;13.756;2023-03-01T01:26:30;-1.70;1.00
19805;DHT22;10062;51.052;13.756;2023-03-01T01:29:04;-1.70;1.00
19805;DHT22;10062;51.052;13.756;2023-03-01T01:31:37;-1.60;1.00
19805;DHT22;10062;51.052;13.756;2023-03-01T01:34:14;-1.70;1.00
19805;DHT22;10062;51.052;13.756;2023-03-01T01:36:48;-1.70;1.00
19805;DHT22;10062;51.052;13.756;2023-03-01T01:39:22;-1.80;1.00
19805;DHT22;10062;51.052;13.756;2023-03-01T01:41:54;-1.90;1.00
19805;DHT22;10062;51.052;13.756;2023-03-01T01:44:27;-1.90;1.00
19805;DHT22;10062;51.052;13.756;2023-03-01T01:47:02;-1.80;1.00
19805;DHT22;10062;51.052;13.756;2023-03-01T01:49:37;-1.80;1.00
19805;DHT22;10062;51.052;13.756;2023-03-01T01:52:11;-1.90;1.00
19805;DHT22;10062;51.052;13.756;2023-03-01T01:54:48;-1.90;1.00
19805;DHT22;10062;51.052;13.756;2023-03-01T01:57:23;-1.90;1.00
19805;DHT22;10062;51.052;13.756;2023-03-01T01:59:59;-2.00;1.00
19805;DHT22;10062;51.052;13.756;2023-03-01T02:02:32;-2.00;1.00
19805;DHT22;10062;51.052;13.756;2023-03-01T02:05:09;-2.00;1.00
19805;DHT22;10062;51.052;13.756;2023-03-01T02:07:43;-2.10;1.00
19805;DHT22;10062;51.052;13.756;2023-03-01T02:10:17;-2.00;1.00
19805;DHT22;10062;51.052;13.756;2023-03-01T02:12:49;-2.00;1.00
19805;DHT22;10062;51.052;13.756;2023-03-01T02:15:21;-2.10;1.00
19805;DHT22;10062;51.052;13.756;2023-03-01T02:17:53;-2.10;1.00
19805;DHT22;10062;51.052;13.756;2023-03-01T02:20:31;-2.40;1.00
19805;DHT22;10062;51.052;13.756;2023-03-01T02:23:04;-2.40;1.00
19805;DHT22;10062;51.052;13.756;2023-03-01T02:25:41;-2.20;1.00
19805;DHT22;10062;51.052;13.756;2023-03-01T02:28:30;-2.50;1.00
19805;DHT22;10062;51.052;13.756;2023-03-01T02:31:03;-2.60;1.00
19805;DHT22;10062;51.052;13.756;2023-03-01T02:33:53;-2.60;1.00
19805;DHT22;10062;51.052;13.756;2023-03-01T02:36:29;-2.60;1.00
19805;DHT22;10062;51.052;13.756;2023-03-01T02:39:03;-2.60;1.00
19805;DHT22;10062;51.052;13.756;2023-03-01T02:41:37;-2.60;1.00
19805;DHT22;10062;51.052;13.756;2023-03-01T02:44:10;-2.70;1.00
19805;DHT22;10062;51.052;13.756;2023-03-01T02:46:43;-2.80;1.00
19805;DHT22;10062;51.052;13.756;2023-03-01T02:49:22;-2.70;1.00
19805;DHT22;10062;51.052;13.756;2023-03-01T02:52:22;-2.70;1.00
19805;DHT22;10062;51.052;13.756;2023-03-01T02:54:59;-2.70;1.00
19805;DHT22;10062;51.052;13.756;2023-03-01T02:57:33;-2.60;1.00
19805;DHT22;10062;51.052;13.756;2023-03-01T03:00:10;-2.70;1.00
19805;DHT22;10062;51.052;13.756;2023-03-01T03:02:51;-2.60;1.00
19805;DHT22;10062;51.052;13.756;2023-03-01T03:05:26;-2.70;1.00
19805;DHT22;10062;51.052;13.756;2023-03-01T03:08:02;-2.70;1.00
19805;DHT22;10062;51.052;13.756;2023-03-01T03:10:40;-2.70;1.00
19805;DHT22;10062;51.052;13.756;2023-03-01T03:13:14;-2.70;1.00
19805;DHT22;10062;51.052;13.756;2023-03-01T03:15:48;-2.60;1.00
19805;DHT22;10062;51.052;13.756;2023-03-01T03:18:20;-2.70;1.00
19805;DHT22;10062;51.052;13.756;2023-03-01T03:20:52;-2.70;1.00
19805;DHT22;10062;51.052;13.756;2023-03-01T03:23:24;-2.80;1.00
19805;DHT22;10062;51.052;13.756;2023-03-01T03:25:56;-2.80;1.00
19805;DHT22;10062;51.052;13.756;2023-03-01T03:28:28;-2.90;1.00
19805;DHT22;10062;51.052;13.756;2023-03-01T03:31:02;-2.80;1.00
19805;DHT22;10062;51.052;13.756;2023-03-01T03:33:37;-2.80;1.00
19805;DHT22;10062;51.052;13.756;2023-03-01T03:36:08;-2.80;1.00
19805;DHT22;10062;51.052;13.756;2023-03-01T03:38:43;-2.90;1.00
19805;DHT22;10062;51.052;13.756;2023-03-01T03:41:15;-2.90;1.00
19805;DHT22;10062;51.052;13.756;2023-03-01T03:43:47;-2.80;1.00
19805;DHT22;10062;51.052;13.756;2023-03-01T03:46:20;-2.80;1.00
19805;DHT22;10062;51.052;13.756;2023-03-01T03:48:52;-2.80;1.00
19805;DHT22;10062;51.052;13.756;2023-03-01T03:51:23;-3.00;1.00
19805;DHT22;10062;51.052;13.756;2023-03-01T03:53:55;-2.60;1.00
19805;DHT22;10062;51.052;13.756;2023-03-01T03:56:27;-2.90;1.00
19805;DHT22;10062;51.052;13.756;2023-03-01T03:58:58;-2.80;1.00
19805;DHT22;10062;51.052;13.756;2023-03-01T04:01:31;-2.90;1.00
19805;DHT22;10062;51.052;13.756;2023-03-01T04:04:03;-2.90;1.00
19805;DHT22;10062;51.052;13.756;2023-03-01T04:06:35;-3.00;1.00
19805;DHT22;10062;51.052;13.756;2023-03-01T04:09:07;-3.10;1.00
19805;DHT22;10062;51.052;13.756;2023-03-01T04:11:38;-3.10;1.00
19805;DHT22;10062;51.052;13.756;2023-03-01T04:14:11;-3.10;1.00
19805;DHT22;10062;51.052;13.756;2023-03-01T04:16:44;-3.10;1.00
19805;DHT22;10062;51.052;13.756;2023-03-01T04:19:15;-3.30;1.00
19805;DHT22;10062;51.052;13.756;2023-03-01T04:21:47;-3.40;1.00
19805;DHT22;10062;51.052;13.756;2023-03-01T04:24:19;-3.30;1.00
19805;DHT22;10062;51.052;13.756;2023-03-01T04:26:50;-3.40;1.00
19805;DHT22;10062;51.052;13.756;2023-03-01T04:29:22;-3.30;1.00
19805;DHT22;10062;51.052;13.756;2023-03-01T04:31:55;-3.40;1.00
19805;DHT22;10062;51.052;13.756;2023-03-01T04:34:27;-3.40;1.00
19805;DHT22;10062;51.052;13.756;2023-03-01T04:36:58;-3.50;1.00
19805;DHT22;10062;51.052;13.756;2023-03-01T04:39:30;-3.40;1.00
19805;DHT22;10062;51.052;13.756;2023-03-01T04:42:03;-3.40;1.00
19805;DHT22;10062;51.052;13.756;2023-03-01T04:44:34;-3.40;1.00
19805;DHT22;10062;51.052;13.756;2023-03-01T04:47:07;-3.40;1.00
19805;DHT22;10062;51.052;13.756;2023-03-01T04:49:39;-3.40;1.00
19805;DHT22;10062;51.052;13.756;2023-03-01T04:52:11;-3.40;1.00
19805;DHT22;10062;51.052;13.756;2023-03-01T04:54:42;-3.50;1.00
19805;DHT22;10062;51.052;13.756;2023-03-01T04:57:14;-3.50;1.00
19805;DHT22;10062;51.052;13.756;2023-03-01T04:59:46;-3.70;1.00
19805;DHT22;10062;51.052;13.756;2023-03-01T05:02:19;-3.70;1.00
19805;DHT22;10062;51.052;13.756;2023-03-01T05:04:50;-3.60;1.00
19805;DHT22;10062;51.052;13.756;2023-03-01T05:07:22;-3.50;1.00
19805;DHT22;10062;51.052;13.756;2023-03-01T05:09:56;-3.70;1.00
19805;DHT22;10062;51.052;13.756;2023-03-01T05:12:27;-3.80;1.00
19805;DHT22;10062;51.052;13.756;2023-03-01T05:14:59;-3.90;1.00
19805;DHT22;10062;51.052;13.756;2023-03-01T05:17:32;-4.00;1.00
19805;DHT22;10062;51.052;13.756;2023-03-01T05:20:05;-4.10;6.00
19805;DHT22;10062;51.052;13.756;2023-03-01T05:22:38;-4.10;13.40
19805;DHT22;10062;51.052;13.756;2023-03-01T05:25:10;-4.10;12.50
19805;DHT22;10062;51.052;13.756;2023-03-01T05:27:44;-4.20;12.60
19805;DHT22;10062;51.052;13.756;2023-03-01T05:30:16;-4.10;18.60
19805;DHT22;10062;51.052;13.756;2023-03-01T05:32:50;-4.10;19.20
19805;DHT22;10062;51.052;13.756;2023-03-01T05:35:26;-4.10;14.70
19805;DHT22;10062;51.052;13.756;2023-03-01T05:37:58;-4.00;9.40
19805;DHT22;10062;51.052;13.756;2023-03-01T05:40:29;-3.80;1.30
19805;DHT22;10062;51.052;13.756;2023-03-01T05:43:01;-3.90;1.00
19805;DHT22;10062;51.052;13.756;2023-03-01T05:45:36;-3.80;1.00
19805;DHT22;10062;51.052;13.756;2023-03-01T05:48:10;-3.80;1.00
19805;DHT22;10062;51.052;13.756;2023-03-01T05:50:44;-3.80;1.00
19805;DHT22;10062;51.052;13.756;2023-03-01T05:53:17;-3.90;1.00
19805;DHT22;10062;51.052;13.756;2023-03-01T05:55:51;-3.90;1.00
19805;DHT22;10062;51.052;13.756;2023-03-01T05:58:23;-4.00;1.00
19805;DHT22;10062;51.052;13.756;2023-03-01T06:00:55;-3.90;1.00
19805;DHT22;10062;51.052;13.756;2023-03-01T06:03:28;-4.00;1.00
19805;DHT22;10062;51.052;13.756;2023-03-01T06:05:59;-4.10;1.00
19805;DHT22;10062;51.052;13.756;2023-03-01T06:08:31;-4.20;1.00
19805;DHT22;10062;51.052;13.756;2023-03-01T06:11:03;-4.10;1.00
19805;DHT22;10062;51.052;13.756;2023-03-01T06:13:35;-4.10;1.00
19805;DHT22;10062;51.052;13.756;2023-03-01T06:16:08;-4.20;1.00
19805;DHT22;10062;51.052;13.756;2023-03-01T06:18:41;-4.30;1.00
19805;DHT22;10062;51.052;13.756;2023-03-01T06:21:13;-4.30;8.40
19805;DHT22;10062;51.052;13.756;2023-03-01T06:23:44;-4.20;16.20
19805;DHT22;10062;51.052;13.756;2023-03-01T06:26:16;-4.10;25.30
19805;DHT22;10062;51.052;13.756;2023-03-01T06:28:48;-4.10;18.80
19805;DHT22;10062;51.052;13.756;2023-03-01T06:31:19;-3.70;13.40
19805;DHT22;10062;51.052;13.756;2023-03-01T06:33:52;-4.10;1.00
19805;DHT22;10062;51.052;13.756;2023-03-01T06:36:24;-4.10;1.00
19805;DHT22;10062;51.052;13.756;2023-03-01T06:38:56;-4.10;1.00
19805;DHT22;10062;51.052;13.756;2023-03-01T06:41:27;-4.00;1.00
19805;DHT22;10062;51.052;13.756;2023-03-01T06:43:59;-3.90;1.00
19805;DHT22;10062;51.052;13.756;2023-03-01T06:46:31;-3.70;1.00
19805;DHT22;10062;51.052;13.756;2023-03-01T06:49:04;-3.70;1.00
19805;DHT22;10062;51.052;13.756;2023-03-01T06:51:39;-3.50;1.00
19805;DHT22;10062;51.052;13.756;2023-03-01T06:54:11;-3.20;1.00
19805;DHT22;10062;51.052;13.756;2023-03-01T06:56:43;-3.10;1.00
19805;DHT22;10062;51.052;13.756;2023-03-01T06:59:17;-3.00;1.00
19805;DHT22;10062;51.052;13.756;2023-03-01T07:01:49;-2.80;1.00
19805;DHT22;10062;51.052;13.756;2023-03-01T07:04:22;-2.60;1.00
19805;DHT22;10062;51.052;13.756;2023-03-01T07:06:54;-2.60;1.00
19805;DHT22;10062;51.052;13.756;2023-03-01T07:09:26;-2.40;1.00
19805;DHT22;10062;51.052;13.756;2023-03-01T07:11:58;-2.60;1.00
19805;DHT22;10062;51.052;13.756;2023-03-01T07:14:29;-2.30;1.00
19805;DHT22;10062;51.052;13.756;2023-03-01T07:17:01;-2.00;1.00
19805;DHT22;10062;51.052;13.756;2023-03-01T07:19:34;-1.90;1.00
19805;DHT22;10062;51.052;13.756;2023-03-01T07:22:06;-1.80;1.00
19805;DHT22;10062;51.052;13.756;2023-03-01T07:24:40;-1.80;1.00
19805;DHT22;10062;51.052;13.756;2023-03-01T07:27:12;-1.60;1.00
19805;DHT22;10062;51.052;13.756;2023-03-01T07:29:44;-1.40;1.00
19805;DHT22;10062;51.052;13.756;2023-03-01T07:32:15;-1.30;99.90
19805;DHT22;10062;51.052;13.756;2023-03-01T07:34:48;-1.10;99.90
19805;DHT22;10062;51.052;13.756;2023-03-01T07:37:20;-1.00;1.00
19805;DHT22;10062;51.052;13.756;2023-03-01T07:39:52;-0.80;1.00
19805;DHT22;10062;51.052;13.756;2023-03-01T07:42:23;-0.80;1.00
19805;DHT22;10062;51.052;13.756;2023-03-01T07:44:55;-0.60;99.90
19805;DHT22;10062;51.052;13.756;2023-03-01T07:47:27;-0.40;1.00
19805;DHT22;10062;51.052;13.756;2023-03-01T07:49:59;-0.30;1.00
19805;DHT22;10062;51.052;13.756;2023-03-01T07:52:32;-0.40;1.00
19805;DHT22;10062;51.052;13.756;2023-03-01T07:55:05;-0.40;99.90
19805;DHT22;10062;51.052;13.756;2023-03-01T07:57:37;-0.10;1.00
19805;DHT22;10062;51.052;13.756;2023-03-01T08:00:11;0.20;1.00
19805;DHT22;10062;51.052;13.756;2023-03-01T08:02:43;0.60;99.90
19805;DHT22;10062;51.052;13.756;2023-03-01T08:05:16;0.90;1.00
19805;DHT22;10062;51.052;13.756;2023-03-01T08:07:48;1.30;99.90
19805;DHT22;10062;51.052;13.756;2023-03-01T08:10:20;1.40;1.00
19805;DHT22;10062;51.052;13.756;2023-03-01T08:12:51;1.70;53.00
19805;DHT22;10062;51.052;13.756;2023-03-01T08:15:24;2.60;1.00
19805;DHT22;10062;51.052;13.756;2023-03-01T08:17:55;3.30;99.90
19805;DHT22;10062;51.052;13.756;2023-03-01T08:20:28;4.30;99.90
19805;DHT22;10062;51.052;13.756;2023-03-01T08:23:00;5.00;99.90
19805;DHT22;10062;51.052;13.756;2023-03-01T08:25:31;5.80;1.00
19805;DHT22;10062;51.052;13.756;2023-03-01T08:28:04;6.40;1.00
19805;DHT22;10062;51.052;13.756;2023-03-01T08:30:35;5.70;1.00
19805;DHT22;10062;51.052;13.756;2023-03-01T08:33:07;5.50;1.00
19805;DHT22;10062;51.052;13.756;2023-03-01T08:35:40;5.70;1.00
19805;DHT22;10062;51.052;13.756;2023-03-01T08:38:12;6.40;1.00
19805;DHT22;10062;51.052;13.756;2023-03-01T08:40:43;7.20;1.00
19805;DHT22;10062;51.052;13.756;2023-03-01T08:43:15;8.20;1.00
19805;DHT22;10062;51.052;13.756;2023-03-01T08:45:48;8.90;99.90
19805;DHT22;10062;51.052;13.756;2023-03-01T08:48:20;9.60;99.90
19805;DHT22;10062;51.052;13.756;2023-03-01T08:50:53;10.20;99.90
19805;DHT22;10062;51.052;13.756;2023-03-01T08:53:24;10.80;99.90
19805;DHT22;10062;51.052;13.756;2023-03-01T08:55:59;11.30;99.90
19805;DHT22;10062;51.052;13.756;2023-03-01T08:58:31;11.90;99.90
19805;DHT22;10062;51.052;13.756;2023-03-01T09:01:07;12.50;99.90
19805;DHT22;10062;51.052;13.756;2023-03-01T09:03:39;13.10;99.90
19805;DHT22;10062;51.052;13.756;2023-03-01T09:06:13;13.60;99.90
19805;DHT22;10062;51.052;13.756;2023-03-01T09:08:46;13.90;99.90
19805;DHT22;10062;51.052;13.756;2023-03-01T09:11:20;14.20;99.90
19805;DHT22;10062;51.052;13.756;2023-03-01T09:13:52;14.10;92.70
19805;DHT22;10062;51.052;13.756;2023-03-01T09:16:24;13.90;75.50
19805;DHT22;10062;51.052;13.756;2023-03-01T09:18:55;14.20;73.40
19805;DHT22;10062;51.052;13.756;2023-03-01T09:21:28;15.30;83.80
19805;DHT22;10062;51.052;13.756;2023-03-01T09:24:00;15.90;58.20
19805;DHT22;10062;51.052;13.756;2023-03-01T09:26:31;16.20;46.90
19805;DHT22;10062;51.052;13.756;2023-03-01T09:29:03;16.60;32.60
19805;DHT22;10062;51.052;13.756;2023-03-01T09:31:35;17.00;28.70
19805;DHT22;10062;51.052;13.756;2023-03-01T09:34:07;17.40;25.50
19805;DHT22;10062;51.052;13.756;2023-03-01T09:36:40;18.00;18.70
19805;DHT22;10062;51.052;13.756;2023-03-01T09:39:11;17.70;6.30
19805;DHT22;10062;51.052;13.756;2023-03-01T09:41:50;18.10;1.00
19805;DHT22;10062;51.052;13.756;2023-03-01T09:44:31;18.40;1.00
19805;DHT22;10062;51.052;13.756;2023-03-01T09:47:05;18.80;1.00
19805;DHT22;10062;51.052;13.756;2023-03-01T09:49:41;19.30;1.00
19805;DHT22;10062;51.052;13.756;2023-03-01T09:52:25;19.70;1.00
19805;DHT22;10062;51.052;13.756;2023-03-01T09:55:00;19.80;1.00
19805;DHT22;10062;51.052;13.756;2023-03-01T09:57:36;19.90;1.00
19805;DHT22;10062;51.052;13.756;2023-03-01T10:00:22;20.30;1.00
19805;DHT22;10062;51.052;13.756;2023-03-01T10:02:59;20.60;1.00
19805;DHT22;10062;51.052;13.756;2023-03-01T10:05:41;21.00;1.00
19805;DHT22;10062;51.052;13.756;2023-03-01T10:08:29;21.00;1.00
19805;DHT22;10062;51.052;13.756;2023-03-01T10:11:02;19.10;1.00
19805;DHT22;10062;51.052;13.756;2023-03-01T10:13:45;19.70;1.00
19805;DHT22;10062;51.052;13.756;2023-03-01T10:16:23;20.00;1.00
19805;DHT22;10062;51.052;13.756;2023-03-01T10:19:01;20.10;1.00
19805;DHT22;10062;51.052;13.756;2023-03-01T10:21:38;20.30;1.00
19805;DHT22;10062;51.052;13.756;2023-03-01T10:24:15;20.60;1.00
19805;DHT22;10062;51.052;13.756;2023-03-01T10:26:54;21.20;1.00
19805;DHT22;10062;51.052;13.756;2023-03-01T10:29:31;21.90;1.00
19805;DHT22;10062;51.052;13.756;2023-03-01T10:32:06;20.90;1.00
19805;DHT22;10062;51.052;13.756;2023-03-01T10:34:37;20.40;1.00
19805;DHT22;10062;51.052;13.756;2023-03-01T10:37:11;21.40;1.00
19805;DHT22;10062;51.052;13.756;2023-03-01T10:40:02;20.70;1.00
19805;DHT22;10062;51.052;13.756;2023-03-01T10:42:39;20.40;1.00
19805;DHT22;10062;51.052;13.756;2023-03-01T10:45:35;21.70;1.00
19805;DHT22;10062;51.052;13.756;2023-03-01T10:48:12;20.80;1.00
19805;DHT22;10062;51.052;13.756;2023-03-01T10:50:46;21.10;1.00
19805;DHT22;10062;51.052;13.756;2023-03-01T10:53:27;22.00;1.00
19805;DHT22;10062;51.052;13.756;2023-03-01T10:56:04;22.90;1.00
19805;DHT22;10062;51.052;13.756;2023-03-01T10:58:37;23.50;1.00
19805;DHT22;10062;51.052;13.756;2023-03-01T11:01:25;23.90;1.00
19805;DHT22;10062;51.052;13.756;2023-03-01T11:04:11;24.20;1.00
19805;DHT22;10062;51.052;13.756;2023-03-01T11:06:43;24.40;1.00
19805;DHT22;10062;51.052;13.756;2023-03-01T11:09:31;24.60;1.00
19805;DHT22;10062;51.052;13.756;2023-03-01T11:12:14;24.50;1.00
19805;DHT22;10062;51.052;13.756;2023-03-01T11:14:47;24.50;1.00
19805;DHT22;10062;51.052;13.756;2023-03-01T11:17:23;24.50;1.00
19805;DHT22;10062;51.052;13.756;2023-03-01T11:20:06;23.80;1.00
19805;DHT22;10062;51.052;13.756;2023-03-01T11:22:48;22.90;1.00
19805;DHT22;10062;51.052;13.756;2023-03-01T11:25:25;22.20;1.00
19805;DHT22;10062;51.052;13.756;2023-03-01T11:27:59;21.50;1.00
19805;DHT22;10062;51.052;13.756;2023-03-01T11:30:38;20.80;1.00
19805;DHT22;10062;51.052;13.756;2023-03-01T11:33:17;20.10;1.00
19805;DHT22;10062;51.052;13.756;2023-03-01T11:35:55;19.30;1.00
19805;DHT22;10062;51.052;13.756;2023-03-01T11:38:32;17.60;1.00
19805;DHT22;10062;51.052;13.756;2023-03-01T11:41:06;17.30;1.00
19805;DHT22;10062;51.052;13.756;2023-03-01T11:43:47;17.30;1.00
19805;DHT22;10062;51.052;13.756;2023-03-01T11:46:47;16.80;1.00
19805;DHT22;10062;51.052;13.756;2023-03-01T11:49:49;16.10;1.00
19805;DHT22;10062;51.052;13.756;2023-03-01T11:52:31;15.30;1.00
19805;DHT22;10062;51.052;13.756;2023-03-01T11:55:17;14.80;1.00
19805;DHT22;10062;51.052;13.756;2023-03-01T11:58:08;14.20;1.00
19805;DHT22;10062;51.052;13.756;2023-03-01T12:01:00;13.70;1.00
19805;DHT22;10062;51.052;13.756;2023-03-01T12:03:47;13.30;1.00
19805;DHT22;10062;51.052;13.756;2023-03-01T12:06:48;13.00;1.00
19805;DHT22;10062;51.052;13.756;2023-03-01T12:09:29;12.90;1.00
19805;DHT22;10062;51.052;13.756;2023-03-01T12:12:34;12.70;1.00
19805;DHT22;10062;51.052;13.756;2023-03-01T12:15:29;12.70;1.00
19805;DHT22;10062;51.052;13.756;2023-03-01T12:18:23;12.40;1.00
19805;DHT22;10062;51.052;13.756;2023-03-01T12:21:05;11.90;1.00
19805;DHT22;10062;51.052;13.756;2023-03-01T12:24:01;11.80;1.00
19805;DHT22;10062;51.052;13.756;2023-03-01T12:26:43;11.40;1.00
19805;DHT22;10062;51.052;13.756;2023-03-01T12:29:24;11.30;1.00
19805;DHT22;10062;51.052;13.756;2023-03-01T12:32:12;11.30;1.00
19805;DHT22;10062;51.052;13.756;2023-03-01T12:34:59;11.20;1.00
19805;DHT22;10062;51.052;13.756;2023-03-01T12:37:43;11.40;1.00
19805;DHT22;10062;51.052;13.756;2023-03-01T12:40:33;11.30;1.00
19805;DHT22;10062;51.052;13.756;2023-03-01T12:43:21;11.30;1.00
19805;DHT22;10062;51.052;13.756;2023-03-01T12:46:04;11.30;1.00
19805;DHT22;10062;51.052;13.756;2023-03-01T12:48:46;11.20;1.00
19805;DHT22;10062;51.052;13.756;2023-03-01T12:51:23;11.20;1.00
19805;DHT22;10062;51.052;13.756;2023-03-01T12:53:57;11.20;1.00
19805;DHT22;10062;51.052;13.756;2023-03-01T12:56:32;11.10;1.00
19805;DHT22;10062;51.052;13.756;2023-03-01T12:59:13;11.30;1.00
19805;DHT22;10062;51.052;13.756;2023-03-01T13:01:53;11.20;1.00
19805;DHT22;10062;51.052;13.756;2023-03-01T13:04:35;11.20;1.00
19805;DHT22;10062;51.052;13.756;2023-03-01T13:07:19;11.20;1.00
19805;DHT22;10062;51.052;13.756;2023-03-01T13:10:06;11.20;1.00
19805;DHT22;10062;51.052;13.756;2023-03-01T13:13:03;11.20;1.00
19805;DHT22;10062;51.052;13.756;2023-03-01T13:15:36;11.30;1.00
19805;DHT22;10062;51.052;13.756;2023-03-01T13:18:32;11.40;1.00
19805;DHT22;10062;51.052;13.756;2023-03-01T13:21:04;11.50;1.00
19805;DHT22;10062;51.052;13.756;2023-03-01T13:23:38;11.50;1.00
19805;DHT22;10062;51.052;13.756;2023-03-01T13:26:13;11.50;1.00
19805;DHT22;10062;51.052;13.756;2023-03-01T13:28:55;11.40;1.00
19805;DHT22;10062;51.052;13.756;2023-03-01T13:31:58;11.40;1.00
19805;DHT22;10062;51.052;13.756;2023-03-01T13:34:48;11.40;1.00
19805;DHT22;10062;51.052;13.756;2023-03-01T13:43:29;11.40;1.00
19805;DHT22;10062;51.052;13.756;2023-03-01T13:46:07;11.20;1.00
19805;DHT22;10062;51.052;13.756;2023-03-01T13:48:39;11.30;1.00
19805;DHT22;10062;51.052;13.756;2023-03-01T13:51:12;11.60;1.00
19805;DHT22;10062;51.052;13.756;2023-03-01T13:53:45;11.70;1.00
19805;DHT22;10062;51.052;13.756;2023-03-01T13:56:21;11.70;1.00
19805;DHT22;10062;51.052;13.756;2023-03-01T13:58:59;11.70;1.00
19805;DHT22;10062;51.052;13.756;2023-03-01T14:01:33;11.70;1.00
19805;DHT22;10062;51.052;13.756;2023-03-01T14:04:19;11.60;1.00
19805;DHT22;10062;51.052;13.756;2023-03-01T14:06:52;11.60;1.00
19805;DHT22;10062;51.052;13.756;2023-03-01T14:09:26;11.80;1.00
19805;DHT22;10062;51.052;13.756;2023-03-01T14:12:22;11.90;1.00
19805;DHT22;10062;51.052;13.756;2023-03-01T14:15:02;11.90;1.00
19805;DHT22;10062;51.052;13.756;2023-03-01T14:20:39;11.70;1.00
19805;DHT22;10062;51.052;13.756;2023-03-01T14:23:13;11.60;1.00
19805;DHT22;10062;51.052;13.756;2023-03-01T14:25:48;11.90;1.00
19805;DHT22;10062;51.052;13.756;2023-03-01T14:28:21;11.90;1.00
19805;DHT22;10062;51.052;13.756;2023-03-01T14:30:57;11.90;1.00
19805;DHT22;10062;51.052;13.756;2023-03-01T14:33:31;11.70;1.00
19805;DHT22;10062;51.052;13.756;2023-03-01T14:36:05;11.50;1.00
19805;DHT22;10062;51.052;13.756;2023-03-01T14:38:39;11.50;1.00
19805;DHT22;10062;51.052;13.756;2023-03-01T14:41:13;11.40;1.00
19805;DHT22;10062;51.052;13.756;2023-03-01T14:43:49;11.30;1.00
19805;DHT22;10062;51.052;13.756;2023-03-01T14:46:26;11.30;1.00
19805;DHT22;10062;51.052;13.756;2023-03-01T14:49:03;11.50;1.00
19805;DHT22;10062;51.052;13.756;2023-03-01T14:51:36;11.40;1.00
19805;DHT22;10062;51.052;13.756;2023-03-01T14:54:20;11.40;1.00
19805;DHT22;10062;51.052;13.756;2023-03-01T14:56:58;11.40;1.00
19805;DHT22;10062;51.052;13.756;2023-03-01T14:59:33;11.30;1.00
19805;DHT22;10062;51.052;13.756;2023-03-01T15:02:12;11.30;1.00
19805;DHT22;10062;51.052;13.756;2023-03-01T15:04:51;11.30;1.00
19805;DHT22;10062;51.052;13.756;2023-03-01T15:07:25;11.20;1.00
19805;DHT22;10062;51.052;13.756;2023-03-01T15:09:58;11.10;1.00
19805;DHT22;10062;51.052;13.756;2023-03-01T15:12:40;11.00;1.00
19805;DHT22;10062;51.052;13.756;2023-03-01T15:15:34;11.00;1.00
19805;DHT22;10062;51.052;13.756;2023-03-01T15:18:16;10.90;1.00
19805;DHT22;10062;51.052;13.756;2023-03-01T15:20:49;10.80;1.00
19805;DHT22;10062;51.052;13.756;2023-03-01T15:23:23;10.70;1.00
19805;DHT22;10062;51.052;13.756;2023-03-01T15:25:55;10.50;1.00
19805;DHT22;10062;51.052;13.756;2023-03-01T15:28:29;10.40;1.00
19805;DHT22;10062;51.052;13.756;2023-03-01T15:31:04;10.20;1.00
19805;DHT22;10062;51.052;13.756;2023-03-01T15:33:41;10.00;1.00
19805;DHT22;10062;51.052;13.756;2023-03-01T15:36:42;9.80;1.00
19805;DHT22;10062;51.052;13.756;2023-03-01T15:39:36;9.60;1.00
19805;DHT22;10062;51.052;13.756;2023-03-01T15:42:36;9.50;1.00
19805;DHT22;10062;51.052;13.756;2023-03-01T15:45:10;9.40;1.00
19805;DHT22;10062;51.052;13.756;2023-03-01T15:47:48;9.30;1.00
19805;DHT22;10062;51.052;13.756;2023-03-01T15:50:24;9.20;1.00
19805;DHT22;10062;51.052;13.756;2023-03-01T15:52:57;9.30;1.00
19805;DHT22;10062;51.052;13.756;2023-03-01T15:55:31;8.80;1.00
19805;DHT22;10062;51.052;13.756;2023-03-01T15:58:05;8.90;1.00
19805;DHT22;10062;51.052;13.756;2023-03-01T16:00:38;8.80;1.00
19805;DHT22;10062;51.052;13.756;2023-03-01T16:03:11;8.90;1.00
19805;DHT22;10062;51.052;13.756;2023-03-01T16:05:44;8.90;1.00
19805;DHT22;10062;51.052;13.756;2023-03-01T16:08:17;8.90;1.00
19805;DHT22;10062;51.052;13.756;2023-03-01T16:10:49;8.90;1.00
19805;DHT22;10062;51.052;13.756;2023-03-01T16:13:21;8.80;1.00
19805;DHT22;10062;51.052;13.756;2023-03-01T16:15:53;8.70;1.00
19805;DHT22;10062;51.052;13.756;2023-03-01T16:18:25;8.70;1.00
19805;DHT22;10062;51.052;13.756;2023-03-01T16:20:58;8.60;1.00
19805;DHT22;10062;51.052;13.756;2023-03-01T16:23:31;8.50;1.00
19805;DHT22;10062;51.052;13.756;2023-03-01T16:26:03;8.40;1.00
19805;DHT22;10062;51.052;13.756;2023-03-01T16:28:34;8.30;1.00
19805;DHT22;10062;51.052;13.756;2023-03-01T16:31:06;8.30;1.00